createdAt,value
2018-12-23T00:00:34.481Z,1.97
2018-12-23T00:03:07.504Z,2.47
2018-12-23T00:05:41.179Z,1.87
2018-12-23T00:08:14.208Z,1.50
2018-12-23T00:10:47.234Z,1.90
2018-12-23T00:13:20.296Z,2.17
2018-12-23T00:15:53.354Z,2.37
2018-12-23T00:18:26.604Z,1.70
2018-12-23T00:20:59.693Z,2.27
2018-12-23T00:23:32.733Z,1.90
2018-12-23T00:26:05.742Z,2.07
2018-12-23T00:28:38.892Z,2.20
2018-12-23T00:31:11.923Z,1.80
2018-12-23T00:33:45.002Z,2.20
2018-12-23T00:36:18.044Z,1.63
2018-12-23T00:38:51.098Z,1.97
2018-12-23T00:41:24.200Z,2.30
2018-12-23T00:43:57.313Z,1.50
2018-12-23T00:46:30.400Z,1.93
2018-12-23T00:49:03.594Z,1.90
2018-12-23T00:51:36.584Z,1.63
2018-12-23T00:54:09.639Z,1.87
2018-12-23T00:56:42.672Z,1.57
2018-12-23T00:59:15.742Z,1.97
2018-12-23T01:01:48.835Z,1.67
2018-12-23T01:04:21.937Z,2.30
2018-12-23T01:06:54.958Z,1.60
2018-12-23T01:09:28.113Z,1.90
2018-12-23T01:12:01.131Z,1.97
2018-12-23T01:14:34.194Z,1.70
2018-12-23T01:17:07.305Z,2.00
2018-12-23T01:19:40.368Z,1.87
2018-12-23T01:22:13.394Z,2.07
2018-12-23T01:24:46.448Z,1.73
2018-12-23T01:27:22.032Z,2.10
2018-12-23T01:29:55.063Z,1.97
2018-12-23T01:32:28.080Z,1.80
2018-12-23T01:35:01.100Z,1.70
2018-12-23T01:37:34.105Z,2.00
2018-12-23T01:40:07.294Z,1.83
2018-12-23T01:42:40.330Z,1.93
2018-12-23T01:45:13.393Z,1.93
2018-12-23T01:47:46.393Z,1.97
2018-12-23T01:50:19.429Z,1.93
2018-12-23T01:52:52.461Z,1.73
2018-12-23T01:55:21.369Z,1.90
2018-12-23T01:57:51.027Z,1.67
2018-12-23T02:00:20.700Z,2.00
2018-12-23T02:02:50.280Z,1.83
2018-12-23T02:05:19.790Z,1.70
2018-12-23T02:07:49.351Z,1.70
2018-12-23T02:10:19.072Z,2.50
2018-12-23T02:12:48.672Z,1.90
2018-12-23T02:15:18.165Z,2.10
2018-12-23T02:17:47.720Z,1.97
2018-12-23T02:20:17.199Z,2.00
2018-12-23T02:22:46.675Z,1.50
2018-12-23T02:25:16.231Z,1.90
2018-12-23T02:27:45.812Z,1.90
2018-12-23T02:30:15.446Z,1.57
2018-12-23T02:32:44.918Z,2.00
2018-12-23T02:35:14.405Z,1.63
2018-12-23T02:37:43.971Z,1.93
2018-12-23T02:40:13.715Z,1.90
2018-12-23T02:42:43.485Z,1.77
2018-12-23T02:45:12.994Z,2.43
2018-12-23T02:47:42.478Z,2.27
2018-12-23T02:50:12.028Z,1.90
2018-12-23T02:52:41.637Z,1.87
2018-12-23T02:55:11.118Z,1.90
2018-12-23T02:57:40.619Z,2.33
2018-12-23T03:00:10.368Z,1.70
2018-12-23T03:02:39.928Z,1.80
2018-12-23T03:05:09.435Z,1.90
2018-12-23T03:07:38.996Z,1.80
2018-12-23T03:10:08.658Z,1.60
2018-12-23T03:12:38.156Z,2.00
2018-12-23T03:15:07.621Z,1.80
2018-12-23T03:17:37.227Z,1.67
2018-12-23T03:20:06.794Z,1.50
2018-12-23T03:22:36.386Z,1.80
2018-12-23T03:25:05.984Z,1.70
2018-12-23T03:27:35.599Z,2.10
2018-12-23T03:30:05.815Z,1.50
2018-12-23T03:32:35.323Z,2.10
2018-12-23T03:35:05.476Z,1.40
2018-12-23T03:37:35.073Z,1.73
2018-12-23T03:40:05.154Z,1.67
2018-12-23T03:42:34.711Z,2.10
2018-12-23T03:45:04.543Z,1.90
2018-12-23T03:47:34.240Z,1.77
2018-12-23T03:50:05.548Z,1.50
2018-12-23T03:52:35.059Z,1.97
2018-12-23T03:55:04.817Z,2.07
2018-12-23T03:57:34.483Z,1.70
2018-12-23T04:00:05.201Z,1.80
2018-12-23T04:02:34.779Z,1.80
2018-12-23T04:05:04.575Z,1.70
2018-12-23T04:07:34.344Z,2.10
2018-12-23T04:10:03.882Z,2.27
2018-12-23T04:12:33.532Z,2.10
2018-12-23T04:15:03.165Z,2.10
2018-12-23T04:17:32.675Z,2.37
2018-12-23T04:20:02.198Z,2.13
2018-12-23T04:22:31.821Z,2.00
2018-12-23T04:25:01.311Z,2.20
2018-12-23T04:27:30.887Z,2.33
2018-12-23T04:30:00.434Z,2.20
2018-12-23T04:32:29.908Z,2.13
2018-12-23T04:34:59.434Z,2.53
2018-12-23T04:37:28.912Z,2.20
2018-12-23T04:39:58.387Z,2.03
2018-12-23T04:42:27.869Z,2.70
2018-12-23T04:44:57.321Z,2.17
2018-12-23T04:47:26.808Z,2.40
2018-12-23T04:49:56.391Z,2.27
2018-12-23T04:52:26.019Z,3.00
2018-12-23T04:54:55.570Z,2.47
2018-12-23T04:57:25.209Z,2.47
2018-12-23T04:59:54.805Z,2.50
2018-12-23T05:02:24.579Z,2.17
2018-12-23T05:04:54.081Z,2.53
2018-12-23T05:07:23.628Z,2.50
2018-12-23T05:09:53.230Z,2.20
2018-12-23T05:12:22.712Z,2.07
2018-12-23T05:14:52.311Z,2.60
2018-12-23T05:17:21.891Z,2.13
2018-12-23T05:19:51.485Z,2.03
2018-12-23T05:22:21.068Z,2.60
2018-12-23T05:24:50.613Z,2.67
2018-12-23T05:27:20.158Z,2.50
2018-12-23T05:29:49.727Z,2.80
2018-12-23T05:32:19.361Z,2.63
2018-12-23T05:34:48.837Z,2.50
2018-12-23T05:37:18.341Z,2.60
2018-12-23T05:39:47.928Z,2.77
2018-12-23T05:42:17.597Z,3.73
2018-12-23T05:44:47.233Z,2.60
2018-12-23T05:47:16.758Z,2.97
2018-12-23T05:49:46.342Z,2.63
2018-12-23T05:52:16.634Z,3.03
2018-12-23T05:54:46.121Z,2.80
2018-12-23T05:57:15.616Z,2.87
2018-12-23T05:59:45.221Z,2.63
2018-12-23T06:02:14.723Z,2.10
2018-12-23T06:04:44.223Z,2.47
2018-12-23T06:07:13.801Z,2.93
2018-12-23T06:09:43.370Z,2.57
2018-12-23T06:12:12.935Z,2.77
2018-12-23T06:14:42.555Z,2.23
2018-12-23T06:17:12.021Z,2.50
2018-12-23T06:19:41.588Z,2.90
2018-12-23T06:22:11.078Z,2.63
2018-12-23T06:24:40.684Z,2.23
2018-12-23T06:27:10.309Z,2.53
2018-12-23T06:29:39.899Z,2.97
2018-12-23T06:34:45.103Z,2.27
2018-12-23T06:37:14.596Z,2.67
2018-12-23T06:39:44.140Z,2.30
2018-12-23T06:42:13.826Z,2.70
2018-12-23T06:44:43.387Z,2.43
2018-12-23T06:47:12.968Z,2.50
2018-12-23T06:49:42.621Z,2.80
2018-12-23T06:52:12.134Z,2.43
2018-12-23T06:54:41.676Z,2.33
2018-12-23T06:57:11.288Z,2.50
2018-12-23T06:59:41.206Z,2.77
2018-12-23T07:02:10.712Z,2.53
2018-12-23T07:04:40.264Z,2.47
2018-12-23T07:07:18.400Z,2.50
2018-12-23T07:09:41.594Z,2.63
2018-12-23T07:12:14.741Z,2.43
2018-12-23T07:14:44.797Z,2.40
2018-12-23T07:17:14.364Z,2.17
2018-12-23T07:19:44.193Z,2.50
2018-12-23T07:22:13.690Z,2.63
2018-12-23T07:24:43.176Z,2.60
2018-12-23T07:27:13.128Z,3.00
2018-12-23T07:29:42.864Z,2.73
2018-12-23T07:32:12.334Z,2.50
2018-12-23T07:34:42.917Z,2.50
2018-12-23T07:37:12.548Z,2.50
2018-12-23T07:39:42.124Z,2.37
2018-12-23T07:42:11.716Z,2.13
2018-12-23T07:44:41.175Z,2.30
2018-12-23T07:47:10.658Z,2.20
2018-12-23T07:49:40.280Z,2.30
2018-12-23T07:52:09.904Z,2.30
2018-12-23T07:54:39.410Z,2.10
2018-12-23T07:57:08.912Z,2.23
2018-12-23T07:59:38.439Z,2.13
2018-12-23T08:02:08.050Z,2.37
2018-12-23T08:04:37.714Z,1.63
2018-12-23T08:07:07.472Z,1.90
2018-12-23T08:09:37.151Z,2.10
2018-12-23T08:12:07.613Z,1.70
2018-12-23T08:14:37.115Z,1.70
2018-12-23T08:17:06.535Z,2.20
2018-12-23T08:19:36.086Z,1.63
2018-12-23T08:22:05.570Z,2.20
2018-12-23T08:24:35.177Z,2.20
2018-12-23T08:27:04.716Z,1.90
2018-12-23T08:29:34.328Z,2.30
2018-12-23T08:32:06.828Z,1.73
2018-12-23T08:34:36.323Z,1.60
2018-12-23T08:37:05.862Z,1.80
2018-12-23T08:39:35.806Z,2.00
2018-12-23T08:42:05.345Z,1.50
2018-12-23T08:44:34.871Z,1.50
2018-12-23T08:47:06.152Z,1.93
2018-12-23T08:49:40.717Z,2.03
2018-12-23T08:52:10.505Z,2.00
2018-12-23T08:54:40.107Z,1.37
2018-12-23T08:57:09.695Z,1.50
2018-12-23T08:59:39.294Z,1.83
2018-12-23T09:02:08.916Z,1.60
2018-12-23T09:04:38.502Z,1.97
2018-12-23T09:07:08.030Z,1.43
2018-12-23T09:09:37.882Z,1.77
2018-12-23T09:12:07.448Z,1.87
2018-12-23T09:14:37.027Z,1.70
2018-12-23T09:17:06.630Z,1.83
2018-12-23T09:19:36.233Z,1.63
2018-12-23T09:22:05.815Z,2.33
2018-12-23T09:24:35.380Z,1.60
2018-12-23T09:27:06.354Z,1.80
2018-12-23T09:29:35.994Z,1.87
2018-12-23T09:32:05.596Z,1.60
2018-12-23T09:34:35.096Z,2.17
2018-12-23T09:37:04.566Z,2.33
2018-12-23T09:39:34.186Z,1.90
2018-12-23T09:42:03.838Z,2.23
2018-12-23T09:44:33.305Z,2.07
2018-12-23T09:47:03.020Z,2.50
2018-12-23T09:49:32.644Z,2.40
2018-12-23T09:52:02.100Z,2.33
2018-12-23T09:54:31.608Z,2.77
2018-12-23T09:57:01.161Z,2.20
2018-12-23T09:59:30.825Z,2.30
2018-12-23T10:02:00.420Z,2.70
2018-12-23T10:04:30.032Z,2.10
2018-12-23T10:06:59.719Z,2.17
2018-12-23T10:09:29.180Z,2.67
2018-12-23T10:11:58.758Z,3.13
2018-12-23T10:14:28.399Z,2.70
2018-12-23T10:16:57.887Z,2.83
2018-12-23T10:19:27.454Z,3.07
2018-12-23T10:21:56.933Z,2.37
2018-12-23T10:24:26.403Z,3.03
2018-12-23T10:26:56.006Z,2.60
2018-12-23T10:29:25.529Z,3.07
2018-12-23T10:31:55.143Z,2.43
2018-12-23T10:34:24.596Z,2.60
2018-12-23T10:36:54.081Z,3.27
2018-12-23T10:39:23.567Z,3.00
2018-12-23T10:41:53.194Z,2.70
2018-12-23T10:44:22.811Z,2.87
2018-12-23T10:46:52.414Z,2.93
2018-12-23T10:49:21.874Z,3.30
2018-12-23T10:51:51.550Z,3.13
2018-12-23T10:54:21.055Z,3.10
2018-12-23T10:56:50.672Z,2.60
2018-12-23T10:59:20.231Z,3.00
2018-12-23T11:01:49.805Z,3.10
2018-12-23T11:04:19.278Z,2.70
2018-12-23T11:06:48.847Z,2.93
2018-12-23T11:09:18.320Z,3.37
2018-12-23T11:11:47.818Z,3.53
2018-12-23T11:14:17.379Z,2.77
2018-12-23T11:16:46.892Z,2.80
2018-12-23T11:19:16.588Z,2.83
2018-12-23T11:21:46.095Z,2.90
2018-12-23T11:24:15.783Z,3.67
2018-12-23T11:26:45.481Z,2.97
2018-12-23T11:29:14.971Z,2.40
2018-12-23T11:31:44.562Z,2.83
2018-12-23T11:34:14.219Z,2.80
2018-12-23T11:36:43.908Z,2.97
2018-12-23T11:39:13.751Z,2.80
2018-12-23T11:41:43.416Z,2.80
2018-12-23T11:44:12.905Z,3.03
2018-12-23T11:46:42.405Z,3.27
2018-12-23T11:49:11.991Z,2.40
2018-12-23T11:51:51.377Z,3.10
2018-12-23T11:54:21.101Z,2.77
2018-12-23T11:56:50.631Z,3.23
2018-12-23T11:59:20.243Z,2.57
2018-12-23T12:01:49.780Z,3.00
2018-12-23T12:04:19.352Z,2.87
2018-12-23T12:06:49.144Z,3.27
2018-12-23T12:09:18.627Z,2.73
2018-12-23T12:11:50.972Z,2.80
2018-12-23T12:17:58.867Z,2.90
2018-12-23T12:20:28.851Z,3.10
2018-12-23T12:22:58.309Z,3.23
2018-12-23T12:25:27.785Z,3.03
2018-12-23T12:27:57.365Z,3.07
2018-12-23T12:30:26.846Z,3.13
2018-12-23T12:32:56.606Z,7.10
2018-12-23T12:35:26.267Z,2.83
2018-12-23T12:37:55.837Z,3.40
2018-12-23T12:40:25.434Z,3.10
2018-12-23T12:42:55.410Z,2.73
2018-12-23T12:45:25.128Z,3.10
2018-12-23T12:47:54.874Z,2.90
2018-12-23T12:50:24.341Z,3.10
2018-12-23T12:52:53.819Z,3.90
2018-12-23T12:55:23.419Z,2.83
2018-12-23T12:57:53.030Z,2.70
2018-12-23T13:00:22.642Z,3.07
2018-12-23T13:02:52.262Z,3.30
2018-12-23T13:05:21.816Z,2.90
2018-12-23T13:07:51.492Z,3.73
2018-12-23T13:10:20.969Z,2.83
2018-12-23T13:12:50.574Z,3.10
2018-12-23T13:15:20.058Z,2.87
2018-12-23T13:17:51.325Z,2.60
2018-12-23T13:20:21.067Z,3.57
2018-12-23T13:22:50.695Z,3.00
2018-12-23T13:25:20.174Z,3.67
2018-12-23T13:27:49.785Z,2.90
2018-12-23T13:30:19.314Z,3.33
2018-12-23T13:32:48.934Z,3.00
2018-12-23T13:35:18.586Z,2.60
2018-12-23T13:37:48.086Z,3.27
2018-12-23T13:40:21.764Z,2.77
2018-12-23T13:43:16.576Z,2.80
2018-12-23T13:46:00.809Z,2.53
2018-12-23T13:48:51.062Z,3.47
2018-12-23T13:55:08.433Z,3.07
2018-12-23T13:57:45.497Z,3.10
2018-12-23T14:00:45.909Z,2.60
2018-12-23T14:03:32.296Z,2.93
2018-12-23T14:06:15.863Z,2.57
2018-12-23T14:08:59.241Z,2.63
2018-12-23T14:11:43.191Z,2.60
2018-12-23T14:14:14.790Z,3.00
2018-12-23T14:16:46.329Z,2.77
2018-12-23T14:19:17.921Z,2.90
2018-12-23T14:21:49.574Z,3.20
2018-12-23T14:24:21.064Z,3.30
2018-12-23T14:26:52.562Z,3.90
2018-12-23T14:29:24.118Z,3.27
2018-12-23T14:31:55.653Z,3.40
2018-12-23T14:34:27.100Z,3.60
2018-12-23T14:36:58.744Z,4.20
2018-12-23T14:39:30.369Z,4.83
2018-12-23T14:42:01.939Z,4.73
2018-12-23T14:44:33.384Z,4.10
2018-12-23T14:47:04.974Z,4.37
2018-12-23T14:49:36.604Z,3.13
2018-12-23T14:52:08.214Z,4.30
2018-12-23T14:54:39.683Z,3.40
2018-12-23T14:57:11.208Z,4.17
2018-12-23T14:59:42.972Z,3.53
2018-12-23T15:02:14.511Z,3.53
2018-12-23T15:04:45.987Z,3.97
2018-12-23T15:07:17.614Z,3.77
2018-12-23T15:09:49.197Z,3.87
2018-12-23T15:12:21.195Z,4.50
2018-12-23T15:14:52.743Z,4.70
2018-12-23T15:17:24.357Z,4.00
2018-12-23T15:19:55.987Z,4.10
2018-12-23T15:22:27.581Z,3.60
2018-12-23T15:24:59.126Z,3.30
2018-12-23T15:27:30.734Z,3.63
2018-12-23T15:30:02.340Z,2.97
2018-12-23T15:32:33.979Z,3.80
2018-12-23T15:35:07.148Z,3.70
2018-12-23T15:37:38.672Z,3.73
2018-12-23T15:40:10.325Z,4.00
2018-12-23T15:42:41.814Z,3.93
2018-12-23T15:45:14.884Z,3.53
2018-12-23T15:47:46.417Z,5.33
2018-12-23T15:50:18.124Z,3.80
2018-12-23T15:52:49.786Z,3.67
2018-12-23T15:55:21.350Z,3.80
2018-12-23T15:57:52.843Z,4.13
2018-12-23T16:00:24.487Z,4.60
2018-12-23T16:02:56.021Z,5.43
2018-12-23T16:05:27.524Z,5.33
2018-12-23T16:07:59.215Z,5.30
2018-12-23T16:10:30.736Z,5.30
2018-12-23T16:13:02.395Z,6.30
2018-12-23T16:15:34.043Z,4.60
2018-12-23T16:18:06.607Z,4.10
2018-12-23T16:20:38.177Z,4.07
2018-12-23T16:23:28.893Z,3.77
2018-12-23T16:26:04.859Z,4.33
2018-12-23T16:28:36.465Z,4.17
2018-12-23T16:31:07.958Z,4.83
2018-12-23T16:33:39.485Z,3.90
2018-12-23T16:36:10.988Z,4.13
2018-12-23T16:38:42.514Z,4.50
2018-12-23T16:41:14.401Z,3.80
2018-12-23T16:43:45.964Z,5.23
2018-12-23T16:46:17.731Z,4.03
2018-12-23T16:48:49.427Z,10.03
2018-12-23T16:51:20.952Z,4.97
2018-12-23T16:53:52.706Z,5.33
2018-12-23T16:56:24.706Z,4.33
2018-12-23T16:59:00.737Z,6.83
2018-12-23T17:01:32.696Z,4.93
2018-12-23T17:04:04.636Z,4.30
2018-12-23T17:06:36.508Z,4.57
2018-12-23T17:09:08.347Z,4.00
2018-12-23T17:11:40.240Z,4.30
2018-12-23T17:14:11.757Z,4.87
2018-12-23T17:16:43.233Z,4.20
2018-12-23T17:19:14.921Z,4.47
2018-12-23T17:21:46.597Z,5.80
2018-12-23T17:24:18.234Z,7.03
2018-12-23T17:26:49.830Z,5.47
2018-12-23T17:29:21.289Z,5.73
2018-12-23T17:31:52.990Z,6.50
2018-12-23T17:34:24.515Z,5.77
2018-12-23T17:36:56.164Z,5.20
2018-12-23T17:39:27.722Z,3.77
2018-12-23T17:41:59.323Z,4.40
2018-12-23T17:44:31.004Z,4.80
2018-12-23T17:47:02.715Z,9.03
2018-12-23T17:49:34.500Z,5.97
2018-12-23T17:52:10.053Z,6.50
2018-12-23T17:54:41.995Z,5.80
2018-12-23T17:57:13.981Z,5.13
2018-12-23T17:59:45.655Z,6.87
2018-12-23T18:02:17.385Z,6.33
2018-12-23T18:04:51.571Z,6.77
2018-12-23T18:07:23.169Z,7.13
2018-12-23T18:09:54.947Z,7.23
2018-12-23T18:12:26.898Z,8.67
2018-12-23T18:14:58.695Z,7.30
2018-12-23T18:17:30.504Z,5.90
2018-12-23T18:20:02.413Z,5.17
2018-12-23T18:22:34.306Z,5.57
2018-12-23T18:25:06.464Z,4.47
2018-12-23T18:27:38.399Z,4.57
2018-12-23T18:30:10.101Z,5.03
2018-12-23T18:32:41.779Z,4.80
2018-12-23T18:35:13.571Z,7.00
2018-12-23T18:37:45.299Z,4.53
2018-12-23T18:40:16.852Z,5.67
2018-12-23T18:42:48.416Z,9.97
2018-12-23T18:45:19.949Z,5.10
2018-12-23T18:47:51.465Z,5.40
2018-12-23T18:50:23.102Z,6.37
2018-12-23T18:52:54.554Z,6.33
2018-12-23T18:55:27.770Z,6.87
2018-12-23T18:57:59.389Z,6.67
2018-12-23T19:00:31.104Z,8.00
2018-12-23T19:03:04.469Z,7.93
2018-12-23T19:05:36.026Z,4.83
2018-12-23T19:08:07.529Z,6.17
2018-12-23T19:10:44.998Z,8.23
2018-12-23T19:13:45.038Z,9.07
2018-12-23T19:16:42.924Z,8.90
2018-12-23T19:19:26.187Z,9.63
2018-12-23T19:22:03.734Z,10.27
2018-12-23T19:24:55.051Z,11.13
2018-12-23T19:27:46.256Z,11.00
2018-12-23T19:30:49.746Z,14.10
2018-12-23T19:33:24.279Z,12.30
2018-12-23T19:36:01.817Z,13.23
2018-12-23T19:38:39.344Z,13.27
2018-12-23T19:41:22.328Z,13.33
2018-12-23T19:44:02.761Z,14.20
2018-12-23T19:46:46.207Z,14.17
2018-12-23T19:49:20.832Z,13.83
2018-12-23T19:52:13.852Z,14.17
2018-12-23T19:55:03.201Z,13.30
2018-12-23T19:57:37.784Z,14.17
2018-12-23T20:00:24.187Z,14.20
2018-12-23T20:03:07.300Z,12.50
2018-12-23T20:06:04.163Z,13.80
2018-12-23T20:08:58.642Z,14.27
2018-12-23T20:12:06.629Z,13.80
2018-12-23T20:14:50.052Z,13.97
2018-12-23T20:17:30.561Z,14.40
2018-12-23T20:20:24.324Z,15.13
2018-12-23T20:23:15.321Z,15.90
2018-12-23T20:26:05.140Z,21.07
2018-12-23T20:28:45.470Z,58.53
2018-12-23T20:31:35.051Z,21.00
2018-12-23T20:34:09.628Z,21.20
2018-12-23T20:36:44.151Z,11.90
2018-12-23T20:39:30.140Z,9.93
2018-12-23T20:42:34.542Z,8.83
2018-12-23T20:45:42.497Z,7.47
2018-12-23T20:48:20.192Z,3.90
2018-12-23T20:51:26.713Z,3.63
2018-12-23T20:54:10.157Z,2.57
2018-12-23T20:57:16.471Z,2.50
2018-12-23T21:00:03.194Z,2.07
2018-12-23T21:02:52.376Z,2.17
2018-12-23T21:05:32.840Z,1.90
2018-12-23T21:08:09.851Z,2.10
2018-12-23T21:10:59.587Z,1.73
2018-12-23T21:13:54.999Z,1.80
2018-12-23T21:16:32.505Z,1.10
2018-12-23T21:19:19.048Z,1.40
2018-12-23T21:22:05.630Z,1.30
2018-12-23T21:24:54.664Z,1.10
2018-12-23T21:28:01.141Z,0.90
2018-12-23T21:30:41.667Z,0.90
2018-12-23T21:33:43.772Z,0.90
2018-12-23T21:36:33.285Z,0.90
2018-12-23T21:39:19.519Z,0.87
2018-12-23T21:42:11.828Z,0.80
2018-12-23T21:44:49.271Z,0.80
2018-12-23T21:47:55.712Z,0.53
2018-12-23T21:50:30.312Z,0.40
2018-12-23T21:53:26.457Z,0.60
2018-12-23T21:56:18.811Z,0.50
2018-12-23T21:59:19.342Z,0.60
2018-12-23T22:02:19.565Z,0.27
2018-12-23T22:04:54.189Z,0.30
2018-12-23T22:07:31.693Z,0.30
2018-12-23T22:10:20.703Z,0.40
2018-12-23T22:13:04.020Z,0.40
2018-12-23T22:15:35.548Z,0.40
2018-12-23T22:18:07.164Z,0.47
2018-12-23T22:20:38.716Z,0.20
2018-12-23T22:23:10.229Z,0.30
2018-12-23T22:25:41.782Z,0.40
2018-12-23T22:28:13.376Z,0.40
2018-12-23T22:30:44.988Z,0.40
2018-12-23T22:33:16.533Z,0.73
2018-12-23T22:35:48.059Z,0.40
2018-12-23T22:38:19.808Z,0.50
2018-12-23T22:40:51.435Z,0.37
2018-12-23T22:43:22.829Z,0.30
2018-12-23T22:45:54.310Z,0.40
2018-12-23T22:48:25.822Z,0.40
2018-12-23T22:50:57.508Z,0.30
2018-12-23T22:53:29.036Z,0.40
2018-12-23T22:56:00.679Z,0.40
2018-12-23T22:58:32.139Z,0.30
2018-12-23T23:01:04.180Z,0.40
2018-12-23T23:03:35.812Z,0.40
2018-12-23T23:06:11.057Z,0.30
2018-12-23T23:08:42.768Z,0.30
2018-12-23T23:11:14.364Z,0.40
2018-12-23T23:13:45.934Z,0.40
2018-12-23T23:16:17.469Z,0.30
2018-12-23T23:18:49.063Z,0.30
2018-12-23T23:21:20.679Z,0.27
2018-12-23T23:23:53.514Z,0.30
2018-12-23T23:26:25.101Z,0.20
2018-12-23T23:28:56.711Z,0.20
2018-12-23T23:31:28.401Z,0.30
2018-12-23T23:34:00.009Z,0.40
2018-12-23T23:36:31.543Z,0.40
2018-12-23T23:39:03.168Z,0.27
2018-12-23T23:41:34.784Z,0.30
2018-12-23T23:44:06.302Z,0.30
2018-12-23T23:46:38.320Z,0.30
2018-12-23T23:49:09.836Z,0.30
2018-12-23T23:51:41.394Z,0.30
2018-12-23T23:54:12.985Z,0.30
2018-12-23T23:56:44.817Z,0.30
2018-12-23T23:59:16.328Z,0.30
